createdAt,value
2023-05-12T00:00:44.894Z,1.33
2023-05-12T00:01:44.916Z,1.34
2023-05-12T00:02:45.061Z,1.31
2023-05-12T00:03:45.120Z,1.31
2023-05-12T00:04:45.090Z,1.31
2023-05-12T00:05:45.114Z,1.32
2023-05-12T00:06:45.148Z,1.30
2023-05-12T00:07:45.169Z,1.32
2023-05-12T00:08:45.237Z,1.30
2023-05-12T00:09:45.279Z,1.30
2023-05-12T00:10:45.356Z,1.30
2023-05-12T00:11:45.389Z,1.29
2023-05-12T00:12:45.436Z,1.30
2023-05-12T00:13:45.502Z,1.30
2023-05-12T00:14:45.545Z,1.30
2023-05-12T00:15:45.602Z,1.30
2023-05-12T00:16:45.686Z,1.29
2023-05-12T00:17:45.750Z,1.29
2023-05-12T00:18:45.854Z,1.29
2023-05-12T00:19:45.849Z,1.29
2023-05-12T00:20:45.885Z,1.28
2023-05-12T00:21:45.933Z,1.28
2023-05-12T00:22:45.988Z,1.30
2023-05-12T00:23:46.058Z,1.28
2023-05-12T00:24:46.109Z,1.28
2023-05-12T00:25:46.161Z,1.29
2023-05-12T00:26:46.242Z,1.29
2023-05-12T00:27:46.281Z,1.28
2023-05-12T00:28:46.345Z,1.25
2023-05-12T00:29:46.411Z,1.28
2023-05-12T00:30:46.469Z,1.27
2023-05-12T00:31:46.568Z,1.28
2023-05-12T00:32:46.646Z,1.27
2023-05-12T00:33:46.659Z,1.27
2023-05-12T00:34:46.701Z,1.28
2023-05-12T00:35:46.770Z,1.26
2023-05-12T00:36:46.833Z,1.25
2023-05-12T00:37:46.878Z,1.27
2023-05-12T00:38:46.950Z,1.26
2023-05-12T00:39:46.995Z,1.26
2023-05-12T00:40:47.055Z,1.25
2023-05-12T00:41:47.126Z,1.26
2023-05-12T00:42:47.195Z,1.26
2023-05-12T00:43:47.236Z,1.24
2023-05-12T00:44:47.298Z,1.24
2023-05-12T00:45:47.396Z,1.25
2023-05-12T00:46:47.404Z,1.24
2023-05-12T00:47:47.514Z,1.25
2023-05-12T00:48:47.529Z,1.23
2023-05-12T00:49:47.592Z,1.25
2023-05-12T00:50:47.667Z,1.24
2023-05-12T00:51:47.712Z,1.22
2023-05-12T00:52:47.812Z,1.23
2023-05-12T00:53:50.187Z,1.22
2023-05-12T00:54:47.826Z,1.22
2023-05-12T00:55:47.820Z,1.23
2023-05-12T00:56:47.818Z,1.22
2023-05-12T00:57:47.795Z,1.23
2023-05-12T00:58:47.797Z,1.23
2023-05-12T00:59:47.782Z,1.23
2023-05-12T01:00:47.852Z,1.22
2023-05-12T01:01:47.777Z,1.22
2023-05-12T01:02:47.841Z,1.22
2023-05-12T01:03:47.801Z,1.22
2023-05-12T01:04:47.760Z,1.21
2023-05-12T01:05:47.765Z,1.20
2023-05-12T01:06:47.738Z,1.19
2023-05-12T01:07:47.750Z,1.21
2023-05-12T01:08:47.733Z,1.20
2023-05-12T01:09:47.726Z,1.21
2023-05-12T01:10:47.715Z,1.20
2023-05-12T01:11:47.717Z,1.21
2023-05-12T01:12:47.715Z,1.20
2023-05-12T01:13:47.691Z,1.18
2023-05-12T01:14:47.684Z,1.20
2023-05-12T01:15:47.695Z,1.19
2023-05-12T01:16:47.720Z,1.18
2023-05-12T01:17:47.767Z,1.20
2023-05-12T01:18:47.660Z,1.20
2023-05-12T01:19:47.663Z,1.18
2023-05-12T01:20:47.699Z,1.18
2023-05-12T01:21:47.636Z,1.20
2023-05-12T01:22:47.634Z,1.19
2023-05-12T01:23:47.631Z,1.18
2023-05-12T01:24:47.627Z,1.18
2023-05-12T01:25:47.610Z,1.17
2023-05-12T01:26:47.608Z,1.18
2023-05-12T01:27:47.606Z,1.20
2023-05-12T01:28:47.602Z,1.18
2023-05-12T01:29:47.577Z,1.18
2023-05-12T01:30:47.602Z,1.18
2023-05-12T01:31:47.751Z,1.18
2023-05-12T01:32:47.753Z,1.17
2023-05-12T01:33:47.720Z,1.16
2023-05-12T01:34:47.768Z,1.17
2023-05-12T01:35:47.836Z,1.16
2023-05-12T01:36:47.893Z,1.17
2023-05-12T01:37:47.953Z,1.16
2023-05-12T01:38:48.020Z,1.17
2023-05-12T01:39:48.070Z,1.16
2023-05-12T01:40:48.145Z,1.14
2023-05-12T01:41:48.170Z,1.15
2023-05-12T01:42:48.233Z,1.16
2023-05-12T01:43:48.299Z,1.14
2023-05-12T01:44:48.360Z,1.13
2023-05-12T01:45:48.439Z,1.16
2023-05-12T01:46:48.582Z,1.15
2023-05-12T01:47:48.600Z,1.16
2023-05-12T01:48:48.596Z,1.15
2023-05-12T01:49:48.650Z,1.16
2023-05-12T01:50:48.741Z,1.15
2023-05-12T01:51:48.790Z,1.16
2023-05-12T01:52:48.850Z,1.14
2023-05-12T01:53:48.903Z,1.14
2023-05-12T01:54:48.949Z,1.13
2023-05-12T01:55:49.044Z,1.13
2023-05-12T01:56:49.076Z,1.16
2023-05-12T01:57:49.136Z,1.13
2023-05-12T01:58:49.233Z,1.14
2023-05-12T01:59:49.266Z,1.13
2023-05-12T02:00:49.314Z,1.15
2023-05-12T02:01:49.422Z,1.15
2023-05-12T02:02:49.508Z,1.14
2023-05-12T02:03:49.671Z,1.14
2023-05-12T02:04:49.567Z,1.13
2023-05-12T02:05:49.635Z,1.13
2023-05-12T02:06:49.692Z,1.14
2023-05-12T02:07:49.744Z,1.13
2023-05-12T02:08:49.808Z,1.11
2023-05-12T02:09:49.872Z,1.15
2023-05-12T02:10:49.924Z,1.13
2023-05-12T02:11:49.992Z,1.12
2023-05-12T02:12:50.059Z,1.13
2023-05-12T02:13:50.108Z,1.11
2023-05-12T02:14:50.174Z,1.15
2023-05-12T02:15:50.229Z,1.13
2023-05-12T02:16:50.434Z,1.12
2023-05-12T02:17:50.442Z,1.10
2023-05-12T02:18:50.444Z,1.12
2023-05-12T02:19:50.494Z,1.11
2023-05-12T02:20:50.544Z,1.12
2023-05-12T02:21:50.656Z,1.11
2023-05-12T02:22:50.683Z,1.11
2023-05-12T02:23:50.729Z,1.10
2023-05-12T02:24:50.793Z,1.12
2023-05-12T02:25:50.850Z,1.12
2023-05-12T02:26:50.899Z,1.11
2023-05-12T02:27:50.959Z,1.10
2023-05-12T02:28:51.032Z,1.10
2023-05-12T02:29:51.088Z,1.10
2023-05-12T02:30:51.157Z,1.11
2023-05-12T02:31:51.252Z,1.11
2023-05-12T02:32:51.276Z,1.12
2023-05-12T02:33:51.349Z,1.10
2023-05-12T02:34:51.410Z,1.12
2023-05-12T02:35:51.468Z,1.12
2023-05-12T02:36:51.526Z,1.13
2023-05-12T02:37:51.578Z,1.10
2023-05-12T02:38:51.652Z,1.13
2023-05-12T02:39:51.710Z,1.10
2023-05-12T02:40:51.766Z,1.09
2023-05-12T02:41:51.867Z,1.08
2023-05-12T02:42:51.890Z,1.10
2023-05-12T02:43:51.915Z,1.09
2023-05-12T02:44:51.981Z,1.10
2023-05-12T02:45:52.111Z,1.09
2023-05-12T02:46:52.093Z,1.09
2023-05-12T02:47:52.196Z,1.09
2023-05-12T02:48:52.186Z,1.08
2023-05-12T02:49:52.242Z,1.06
2023-05-12T02:50:52.334Z,1.07
2023-05-12T02:51:52.346Z,1.08
2023-05-12T02:52:52.398Z,1.04
2023-05-12T02:53:52.455Z,1.06
2023-05-12T02:54:52.510Z,1.06
2023-05-12T02:55:52.565Z,1.06
2023-05-12T02:56:52.618Z,1.08
2023-05-12T02:57:52.671Z,1.08
2023-05-12T02:58:52.721Z,1.09
2023-05-12T02:59:52.789Z,1.07
2023-05-12T03:01:03.063Z,1.08
2023-05-12T03:01:53.867Z,1.09
2023-05-12T03:02:52.868Z,1.09
2023-05-12T03:03:52.852Z,1.09
2023-05-12T03:04:52.799Z,1.08
2023-05-12T03:05:52.796Z,1.09
2023-05-12T03:06:52.821Z,1.09
2023-05-12T03:07:52.803Z,1.07
2023-05-12T03:08:52.779Z,1.08
2023-05-12T03:09:52.772Z,1.07
2023-05-12T03:10:52.767Z,1.09
2023-05-12T03:11:52.786Z,1.09
2023-05-12T03:12:52.843Z,1.09
2023-05-12T03:13:52.908Z,1.07
2023-05-12T03:14:52.973Z,1.08
2023-05-12T03:15:53.013Z,1.07
2023-05-12T03:16:53.238Z,1.06
2023-05-12T03:17:53.220Z,1.09
2023-05-12T03:18:53.200Z,1.08
2023-05-12T03:19:53.232Z,1.06
2023-05-12T03:20:53.301Z,1.09
2023-05-12T03:21:53.365Z,1.06
2023-05-12T03:22:53.417Z,1.07
2023-05-12T03:23:53.478Z,1.06
2023-05-12T03:24:53.535Z,1.07
2023-05-12T03:25:53.578Z,1.06
2023-05-12T03:26:53.648Z,1.07
2023-05-12T03:27:53.714Z,1.07
2023-05-12T03:28:53.773Z,1.08
2023-05-12T03:29:53.804Z,1.06
2023-05-12T03:30:53.866Z,1.08
2023-05-12T03:31:54.013Z,1.08
2023-05-12T03:32:54.070Z,1.08
2023-05-12T03:33:54.055Z,1.05
2023-05-12T03:34:54.103Z,1.08
2023-05-12T03:35:54.164Z,1.07
2023-05-12T03:36:54.228Z,1.06
2023-05-12T03:37:54.320Z,1.05
2023-05-12T03:38:54.343Z,1.08
2023-05-12T03:39:54.413Z,1.05
2023-05-12T03:40:54.455Z,1.07
2023-05-12T03:41:54.538Z,1.07
2023-05-12T03:42:54.569Z,1.06
2023-05-12T03:43:54.639Z,1.05
2023-05-12T03:44:54.688Z,1.06
2023-05-12T03:45:54.760Z,1.05
2023-05-12T03:46:54.850Z,1.05
2023-05-12T03:47:54.892Z,1.05
2023-05-12T03:48:54.901Z,1.04
2023-05-12T03:49:54.966Z,1.04
2023-05-12T03:50:55.022Z,1.04
2023-05-12T03:51:55.091Z,1.05
2023-05-12T03:52:55.162Z,1.05
2023-05-12T03:53:55.203Z,1.05
2023-05-12T03:54:55.262Z,1.05
2023-05-12T03:55:55.320Z,1.03
2023-05-12T03:56:55.378Z,1.04
2023-05-12T03:57:55.430Z,1.04
2023-05-12T03:58:55.499Z,1.05
2023-05-12T03:59:55.558Z,1.05
2023-05-12T04:00:55.612Z,1.06
2023-05-12T04:01:55.827Z,1.04
2023-05-12T04:02:55.852Z,1.03
2023-05-12T04:03:55.860Z,1.02
2023-05-12T04:04:55.862Z,1.04
2023-05-12T04:05:55.922Z,1.05
2023-05-12T04:06:55.989Z,1.05
2023-05-12T04:07:56.042Z,1.03
2023-05-12T04:08:56.113Z,1.03
2023-05-12T04:09:56.174Z,1.05
2023-05-12T04:10:56.229Z,1.04
2023-05-12T04:11:56.294Z,1.03
2023-05-12T04:12:56.359Z,1.02
2023-05-12T04:13:56.428Z,1.01
2023-05-12T04:14:56.479Z,1.03
2023-05-12T04:15:56.526Z,1.01
2023-05-12T04:16:56.609Z,1.02
2023-05-12T04:17:56.722Z,1.02
2023-05-12T04:18:56.777Z,1.03
2023-05-12T04:19:56.772Z,1.02
2023-05-12T04:20:56.823Z,1.04
2023-05-12T04:21:56.891Z,1.04
2023-05-12T04:22:56.947Z,1.02
2023-05-12T04:23:57.014Z,1.02
2023-05-12T04:24:57.068Z,1.01
2023-05-12T04:25:57.134Z,1.03
2023-05-12T04:26:57.207Z,1.00
2023-05-12T04:27:57.272Z,1.03
2023-05-12T04:28:57.325Z,1.02
2023-05-12T04:29:57.406Z,1.01
2023-05-12T04:30:57.444Z,1.02
2023-05-12T04:31:57.570Z,0.99
2023-05-12T04:32:57.615Z,1.02
2023-05-12T04:33:57.638Z,1.01
2023-05-12T04:34:57.701Z,1.01
2023-05-12T04:35:57.808Z,1.01
2023-05-12T04:36:57.857Z,1.00
2023-05-12T04:37:57.904Z,1.01
2023-05-12T04:38:57.971Z,1.01
2023-05-12T04:39:58.032Z,1.01
2023-05-12T04:40:58.081Z,1.02
2023-05-12T04:41:58.141Z,1.01
2023-05-12T04:42:58.320Z,1.01
2023-05-12T04:44:00.688Z,1.02
2023-05-12T04:44:58.506Z,1.03
2023-05-12T04:46:00.062Z,1.01
2023-05-12T04:46:58.589Z,1.02
2023-05-12T04:47:58.718Z,1.01
2023-05-12T04:48:58.718Z,1.01
2023-05-12T04:49:58.806Z,0.99
2023-05-12T04:50:58.823Z,0.99
2023-05-12T04:51:58.951Z,1.00
2023-05-12T04:52:58.962Z,0.98
2023-05-12T04:53:59.011Z,1.00
2023-05-12T04:54:59.079Z,1.00
2023-05-12T04:55:59.129Z,0.99
2023-05-12T04:56:59.199Z,0.99
2023-05-12T04:57:59.272Z,0.99
2023-05-12T04:58:59.312Z,0.99
2023-05-12T04:59:59.415Z,0.97
2023-05-12T05:00:59.500Z,1.00
2023-05-12T05:01:59.510Z,0.98
2023-05-12T05:02:59.647Z,1.01
2023-05-12T05:03:59.780Z,0.98
2023-05-12T05:04:59.694Z,0.98
2023-05-12T05:05:59.768Z,1.00
2023-05-12T05:06:59.905Z,1.00
2023-05-12T05:07:59.859Z,0.98
2023-05-12T05:08:59.902Z,0.98
2023-05-12T05:09:59.945Z,0.97
2023-05-12T05:10:59.990Z,0.97
2023-05-12T05:12:00.034Z,0.98
2023-05-12T05:13:00.127Z,0.97
2023-05-12T05:14:00.150Z,0.98
2023-05-12T05:15:00.163Z,0.96
2023-05-12T05:16:00.291Z,0.96
2023-05-12T05:17:00.254Z,0.96
2023-05-12T05:18:01.931Z,0.95
2023-05-12T05:19:02.054Z,0.96
2023-05-12T05:20:01.434Z,0.96
2023-05-12T05:21:01.420Z,0.96
2023-05-12T05:22:00.308Z,0.97
2023-05-12T05:23:00.303Z,0.97
2023-05-12T05:24:00.289Z,0.97
2023-05-12T05:25:00.278Z,0.99
2023-05-12T05:26:00.266Z,0.97
2023-05-12T05:27:00.293Z,0.97
2023-05-12T05:28:00.253Z,0.96
2023-05-12T05:29:00.251Z,0.96
2023-05-12T05:30:00.285Z,0.95
2023-05-12T05:31:00.284Z,0.95
2023-05-12T05:32:00.523Z,0.94
2023-05-12T05:33:00.557Z,0.92
2023-05-12T05:34:00.219Z,0.93
2023-05-12T05:35:00.199Z,0.92
2023-05-12T05:36:00.227Z,0.92
2023-05-12T05:37:00.197Z,0.94
2023-05-12T05:38:00.194Z,0.93
2023-05-12T05:39:00.188Z,0.95
2023-05-12T05:40:00.218Z,0.97
2023-05-12T05:41:00.165Z,0.99
2023-05-12T05:42:00.178Z,1.04
2023-05-12T05:43:00.152Z,0.99
2023-05-12T05:44:00.173Z,1.03
2023-05-12T05:45:00.156Z,1.08
2023-05-12T05:46:00.164Z,1.11
2023-05-12T05:47:00.214Z,1.17
2023-05-12T05:48:00.344Z,1.22
2023-05-12T05:49:00.249Z,1.26
2023-05-12T05:50:00.274Z,1.25
2023-05-12T05:51:00.382Z,1.31
2023-05-12T05:52:00.380Z,1.33
2023-05-12T05:53:00.383Z,1.35
2023-05-12T05:54:00.422Z,1.35
2023-05-12T05:55:00.467Z,1.36
2023-05-12T05:56:00.502Z,1.35
2023-05-12T05:57:00.562Z,1.35
2023-05-12T05:58:00.617Z,1.37
2023-05-12T05:59:00.648Z,1.38
2023-05-12T06:00:00.679Z,1.40
2023-05-12T06:01:00.732Z,1.41
2023-05-12T06:02:00.807Z,1.41
2023-05-12T06:03:01.135Z,1.44
2023-05-12T06:04:00.963Z,1.43
2023-05-12T06:05:00.895Z,1.45
2023-05-12T06:06:00.984Z,1.44
2023-05-12T06:07:00.985Z,1.43
2023-05-12T06:08:01.052Z,1.43
2023-05-12T06:09:01.092Z,1.44
2023-05-12T06:10:01.136Z,1.45
2023-05-12T06:11:01.207Z,1.44
2023-05-12T06:12:01.276Z,1.45
2023-05-12T06:13:01.532Z,1.46
2023-05-12T06:14:01.336Z,1.42
2023-05-12T06:15:01.397Z,1.43
2023-05-12T06:16:01.443Z,1.43
2023-05-12T06:17:01.498Z,1.41
2023-05-12T06:18:01.584Z,1.41
2023-05-12T06:19:01.615Z,1.43
2023-05-12T06:20:01.619Z,1.41
2023-05-12T06:21:01.683Z,1.41
2023-05-12T06:22:01.704Z,1.41
2023-05-12T06:23:01.759Z,1.41
2023-05-12T06:24:01.799Z,1.43
2023-05-12T06:25:01.850Z,1.45
2023-05-12T06:26:01.921Z,1.41
2023-05-12T06:27:01.934Z,1.40
2023-05-12T06:28:01.982Z,1.41
2023-05-12T06:29:02.101Z,1.41
2023-05-12T06:30:02.083Z,1.42
2023-05-12T06:31:02.151Z,1.42
2023-05-12T06:32:02.241Z,1.44
2023-05-12T06:33:02.281Z,1.44
2023-05-12T06:34:02.281Z,1.41
2023-05-12T06:35:02.365Z,1.41
2023-05-12T06:36:02.402Z,1.41
2023-05-12T06:37:02.417Z,1.40
2023-05-12T06:38:02.467Z,1.42
2023-05-12T06:39:02.509Z,1.48
2023-05-12T06:40:02.570Z,1.75
2023-05-12T06:41:02.592Z,1.65
2023-05-12T06:42:02.631Z,1.88
2023-05-12T06:43:02.648Z,1.88
2023-05-12T06:44:02.661Z,1.95
2023-05-12T06:45:02.707Z,2.19
2023-05-12T06:46:02.728Z,2.10
2023-05-12T06:47:02.686Z,2.32
2023-05-12T06:48:02.726Z,2.41
2023-05-12T06:49:02.671Z,2.57
2023-05-12T06:50:02.699Z,2.54
2023-05-12T06:51:02.742Z,2.66
2023-05-12T06:52:02.809Z,2.90
2023-05-12T06:53:02.882Z,3.12
2023-05-12T06:54:02.916Z,3.19
2023-05-12T06:55:03.006Z,3.35
2023-05-12T06:56:03.023Z,3.43
2023-05-12T06:57:03.085Z,3.33
2023-05-12T06:58:03.162Z,3.64
2023-05-12T06:59:03.157Z,3.75
2023-05-12T07:00:03.209Z,3.78
2023-05-12T07:01:03.284Z,4.33
2023-05-12T07:02:03.347Z,4.27
2023-05-12T07:03:03.342Z,4.51
2023-05-12T07:04:03.422Z,4.67
2023-05-12T07:05:03.402Z,4.60
2023-05-12T07:06:03.544Z,4.74
2023-05-12T07:07:03.467Z,4.93
2023-05-12T07:08:03.490Z,4.89
2023-05-12T07:09:03.510Z,5.24
2023-05-12T07:10:03.542Z,5.32
2023-05-12T07:11:03.552Z,5.66
2023-05-12T07:12:03.581Z,5.67
2023-05-12T07:13:03.616Z,5.89
2023-05-12T07:14:03.653Z,5.60
2023-05-12T07:15:03.659Z,4.11
2023-05-12T07:16:03.716Z,2.90
2023-05-12T07:17:03.706Z,2.05
2023-05-12T07:18:03.840Z,1.72
2023-05-12T07:19:03.866Z,1.57
2023-05-12T07:20:03.854Z,1.27
2023-05-12T07:21:03.857Z,1.08
2023-05-12T07:22:03.842Z,0.90
2023-05-12T07:23:03.897Z,0.85
2023-05-12T07:24:03.866Z,0.85
2023-05-12T07:25:03.905Z,0.74
2023-05-12T07:26:03.902Z,0.71
2023-05-12T07:27:03.931Z,0.67
2023-05-12T07:28:03.972Z,0.63
2023-05-12T07:29:03.994Z,0.60
2023-05-12T07:30:04.009Z,0.56
2023-05-12T07:31:04.142Z,0.53
2023-05-12T07:32:04.088Z,0.57
2023-05-12T07:33:04.124Z,0.62
2023-05-12T07:34:04.119Z,0.77
2023-05-12T07:35:04.153Z,0.99
2023-05-12T07:36:04.157Z,1.12
2023-05-12T07:37:04.127Z,1.17
2023-05-12T07:38:04.200Z,1.20
2023-05-12T07:39:04.171Z,1.22
2023-05-12T07:40:04.165Z,1.25
2023-05-12T07:41:04.190Z,1.28
2023-05-12T07:42:04.208Z,1.21
2023-05-12T07:43:04.261Z,1.20
2023-05-12T07:44:04.269Z,1.14
2023-05-12T07:45:04.317Z,1.09
2023-05-12T07:46:04.324Z,1.16
2023-05-12T07:47:04.405Z,1.19
2023-05-12T07:48:04.471Z,1.27
2023-05-12T07:49:04.466Z,1.21
2023-05-12T07:50:04.726Z,1.22
2023-05-12T07:51:04.552Z,1.21
2023-05-12T07:52:04.609Z,1.25
2023-05-12T07:53:04.692Z,1.04
2023-05-12T07:54:04.736Z,1.15
2023-05-12T07:55:04.775Z,1.01
2023-05-12T07:56:04.839Z,1.09
2023-05-12T07:57:04.952Z,1.09
2023-05-12T07:58:04.932Z,1.05
2023-05-12T07:59:04.981Z,1.05
2023-05-12T08:00:05.018Z,1.10
2023-05-12T08:01:05.069Z,1.09
2023-05-12T08:02:05.136Z,1.19
2023-05-12T08:03:05.236Z,1.14
2023-05-12T08:04:05.270Z,1.13
2023-05-12T08:05:05.233Z,1.17
2023-05-12T08:06:05.274Z,1.12
2023-05-12T08:07:05.328Z,1.00
2023-05-12T08:08:05.359Z,1.09
2023-05-12T08:09:05.442Z,1.03
2023-05-12T08:10:05.451Z,1.01
2023-05-12T08:11:05.504Z,0.96
2023-05-12T08:12:05.558Z,0.89
2023-05-12T08:13:05.643Z,0.92
2023-05-12T08:14:05.664Z,0.93
2023-05-12T08:15:05.700Z,0.89
2023-05-12T08:16:05.755Z,0.87
2023-05-12T08:17:05.859Z,0.89
2023-05-12T08:18:05.917Z,0.98
2023-05-12T08:19:05.995Z,0.99
2023-05-12T08:20:06.000Z,1.06
2023-05-12T08:21:06.026Z,1.05
2023-05-12T08:22:06.076Z,1.04
2023-05-12T08:23:06.137Z,1.05
2023-05-12T08:24:06.201Z,1.11
2023-05-12T08:25:06.240Z,1.12
2023-05-12T08:26:06.303Z,1.06
2023-05-12T08:27:06.366Z,1.01
2023-05-12T08:28:06.430Z,0.97
2023-05-12T08:29:06.460Z,0.91
2023-05-12T08:30:06.522Z,0.82
2023-05-12T08:31:06.595Z,0.83
2023-05-12T08:32:06.610Z,0.83
2023-05-12T08:33:06.719Z,0.77
2023-05-12T08:34:10.537Z,0.77
2023-05-12T08:35:06.596Z,0.74
2023-05-12T08:36:06.584Z,0.69
2023-05-12T08:37:06.585Z,0.70
2023-05-12T08:38:06.574Z,0.65
2023-05-12T08:39:06.557Z,0.61
2023-05-12T08:40:06.558Z,0.61
2023-05-12T08:41:06.561Z,0.58
2023-05-12T08:42:06.556Z,0.56
2023-05-12T08:43:06.560Z,0.58
2023-05-12T08:44:06.544Z,0.69
2023-05-12T08:45:06.523Z,0.87
2023-05-12T08:46:06.561Z,0.89
2023-05-12T08:47:06.505Z,0.91
2023-05-12T08:48:06.693Z,0.98
2023-05-12T08:49:06.502Z,0.99
2023-05-12T08:50:06.507Z,1.00
2023-05-12T08:51:06.486Z,1.09
2023-05-12T08:52:06.473Z,1.05
2023-05-12T08:53:07.088Z,1.07
2023-05-12T08:54:06.586Z,1.12
2023-05-12T08:55:06.451Z,1.13
2023-05-12T08:57:09.534Z,1.10
2023-05-12T08:58:07.165Z,1.10
2023-05-12T08:59:06.567Z,1.12
2023-05-12T09:00:06.431Z,1.16
2023-05-12T09:01:06.472Z,1.22
2023-05-12T09:02:06.450Z,1.95
2023-05-12T09:03:06.402Z,1.58
2023-05-12T09:04:06.460Z,1.38
2023-05-12T09:05:06.389Z,1.35
2023-05-12T09:06:06.412Z,1.31
2023-05-12T09:07:06.364Z,1.29
2023-05-12T09:08:06.386Z,1.31
2023-05-12T09:09:06.382Z,1.39
2023-05-12T09:10:06.390Z,1.41
2023-05-12T09:11:06.428Z,1.37
2023-05-12T09:12:06.424Z,1.37
2023-05-12T09:13:06.452Z,1.39
2023-05-12T09:14:06.511Z,1.39
2023-05-12T09:15:06.546Z,1.40
2023-05-12T09:16:06.562Z,1.38
2023-05-12T09:17:06.508Z,1.39
2023-05-12T09:18:06.578Z,1.39
2023-05-12T09:19:07.174Z,1.38
2023-05-12T09:20:06.543Z,1.36
2023-05-12T09:21:06.547Z,1.07
2023-05-12T09:22:06.584Z,0.88
2023-05-12T09:23:06.646Z,0.79
2023-05-12T09:24:06.855Z,0.72
2023-05-12T09:25:06.683Z,0.64
2023-05-12T09:26:06.807Z,0.61
2023-05-12T09:27:06.748Z,0.55
2023-05-12T09:28:06.792Z,0.52
2023-05-12T09:29:06.883Z,0.52
2023-05-12T09:30:06.910Z,0.50
2023-05-12T09:31:07.082Z,0.50
2023-05-12T09:32:07.073Z,0.55
2023-05-12T09:33:07.143Z,0.50
2023-05-12T09:34:07.105Z,0.37
2023-05-12T09:35:07.163Z,0.34
2023-05-12T09:36:07.186Z,0.46
2023-05-12T09:37:07.188Z,0.47
2023-05-12T09:38:07.187Z,0.50
2023-05-12T09:39:07.602Z,0.52
2023-05-12T09:40:07.184Z,0.58
2023-05-12T09:41:07.237Z,0.63
2023-05-12T09:42:07.300Z,0.72
2023-05-12T09:43:07.316Z,0.78
2023-05-12T09:44:07.340Z,0.72
2023-05-12T09:45:07.360Z,0.82
2023-05-12T09:46:07.403Z,0.84
2023-05-12T09:47:07.540Z,0.85
2023-05-12T09:48:07.477Z,0.72
2023-05-12T09:49:07.359Z,0.68
2023-05-12T09:50:07.368Z,0.74
2023-05-12T09:51:07.409Z,0.79
2023-05-12T09:52:07.467Z,0.84
2023-05-12T09:53:07.534Z,0.86
2023-05-12T09:54:08.018Z,0.93
2023-05-12T09:55:07.644Z,0.92
2023-05-12T09:56:07.762Z,0.97
2023-05-12T09:57:07.754Z,0.92
2023-05-12T09:58:07.792Z,0.93
2023-05-12T09:59:07.853Z,1.03
2023-05-12T10:00:16.611Z,1.15
2023-05-12T10:02:08.009Z,1.10
2023-05-12T10:03:08.128Z,0.97
2023-05-12T10:04:08.027Z,0.94
2023-05-12T10:05:08.133Z,0.93
2023-05-12T10:06:08.181Z,0.96
2023-05-12T10:07:08.089Z,0.95
2023-05-12T10:08:08.149Z,0.97
2023-05-12T10:09:08.188Z,0.97
2023-05-12T10:10:08.247Z,0.92
2023-05-12T10:11:08.257Z,0.90
2023-05-12T10:12:08.300Z,0.86
2023-05-12T10:13:08.343Z,0.87
2023-05-12T10:14:08.398Z,0.98
2023-05-12T10:15:08.506Z,0.96
2023-05-12T10:16:08.473Z,0.98
2023-05-12T10:17:08.564Z,0.96
2023-05-12T10:18:08.597Z,0.91
2023-05-12T10:19:08.619Z,0.89
2023-05-12T10:20:08.647Z,0.88
2023-05-12T10:21:08.708Z,0.85
2023-05-12T10:22:08.735Z,0.91
2023-05-12T10:23:08.762Z,0.95
2023-05-12T10:24:08.824Z,0.94
2023-05-12T10:25:08.889Z,0.97
2023-05-12T10:26:08.855Z,0.96
2023-05-12T10:27:08.876Z,1.10
2023-05-12T10:28:08.904Z,1.38
2023-05-12T10:29:09.162Z,1.78
2023-05-12T10:30:08.977Z,1.89
2023-05-12T10:31:09.051Z,2.00
2023-05-12T10:32:09.078Z,2.03
2023-05-12T10:33:09.079Z,1.63
2023-05-12T10:34:09.099Z,0.92
2023-05-12T10:35:09.278Z,0.87
2023-05-12T10:36:09.186Z,1.07
2023-05-12T10:37:09.287Z,1.22
2023-05-12T10:38:09.303Z,1.39
2023-05-12T10:39:09.402Z,1.48
2023-05-12T10:40:09.623Z,1.67
2023-05-12T10:41:09.463Z,1.83
2023-05-12T10:42:09.533Z,1.97
2023-05-12T10:43:09.539Z,2.15
2023-05-12T10:44:09.593Z,2.27
2023-05-12T10:45:09.595Z,2.40
2023-05-12T10:46:09.760Z,2.56
2023-05-12T10:47:11.076Z,2.66
2023-05-12T10:48:09.704Z,2.86
2023-05-12T10:49:09.627Z,2.98
2023-05-12T10:50:09.656Z,3.12
2023-05-12T10:51:09.742Z,3.23
2023-05-12T10:52:09.625Z,3.28
2023-05-12T10:53:10.572Z,3.46
2023-05-12T10:54:09.635Z,3.56
2023-05-12T10:55:09.680Z,3.60
2023-05-12T10:56:09.937Z,3.81
2023-05-12T10:57:09.906Z,3.95
2023-05-12T10:58:09.956Z,4.26
2023-05-12T10:59:10.235Z,4.39
2023-05-12T11:00:09.845Z,4.61
2023-05-12T11:01:10.205Z,4.72
2023-05-12T11:02:10.410Z,4.97
2023-05-12T11:03:10.438Z,5.12
2023-05-12T11:04:09.844Z,5.48
2023-05-12T11:05:10.198Z,5.65
2023-05-12T11:06:10.446Z,6.13
2023-05-12T11:07:09.986Z,6.22
2023-05-12T11:08:09.936Z,6.31
2023-05-12T11:09:11.038Z,6.64
2023-05-12T11:10:10.629Z,6.88
2023-05-12T11:11:11.012Z,7.03
2023-05-12T11:12:10.022Z,7.24
2023-05-12T11:13:10.081Z,7.78
2023-05-12T11:14:10.446Z,7.95
2023-05-12T11:15:11.135Z,7.97
2023-05-12T11:16:10.305Z,8.22
2023-05-12T11:17:10.319Z,7.98
2023-05-12T11:18:10.417Z,8.36
2023-05-12T11:19:10.544Z,8.63
2023-05-12T11:20:10.497Z,8.77
2023-05-12T11:21:10.540Z,8.77
2023-05-12T11:22:10.588Z,8.62
2023-05-12T11:23:10.574Z,8.62
2023-05-12T11:24:13.158Z,8.79
2023-05-12T11:25:10.755Z,8.66
2023-05-12T11:26:10.710Z,8.81
2023-05-12T11:27:10.706Z,8.66
2023-05-12T11:28:10.706Z,8.57
2023-05-12T11:29:10.704Z,8.57
2023-05-12T11:30:10.715Z,8.43
2023-05-12T11:31:10.702Z,8.35
2023-05-12T11:32:10.734Z,8.37
2023-05-12T11:33:10.744Z,8.23
2023-05-12T11:34:12.770Z,8.23
2023-05-12T11:35:10.704Z,8.24
2023-05-12T11:36:10.694Z,8.03
2023-05-12T11:37:10.712Z,7.98
2023-05-12T11:38:10.677Z,8.13
2023-05-12T11:39:10.727Z,7.99
2023-05-12T11:40:10.675Z,7.88
2023-05-12T11:41:10.653Z,7.71
2023-05-12T11:42:13.523Z,7.73
2023-05-12T11:43:10.665Z,7.75
2023-05-12T11:44:10.640Z,7.76
2023-05-12T11:45:10.628Z,7.76
2023-05-12T11:46:10.659Z,7.75
2023-05-12T11:47:10.620Z,7.53
2023-05-12T11:48:10.661Z,7.54
2023-05-12T11:49:10.598Z,7.61
2023-05-12T11:50:10.619Z,7.48
2023-05-12T11:51:10.582Z,7.48
2023-05-12T11:52:10.580Z,7.54
2023-05-12T11:53:10.565Z,7.29
2023-05-12T11:54:10.553Z,7.16
2023-05-12T11:55:10.584Z,7.23
2023-05-12T11:56:10.553Z,7.10
2023-05-12T11:57:10.540Z,7.19
2023-05-12T11:58:10.527Z,6.87
2023-05-12T11:59:10.531Z,7.09
2023-05-12T12:00:10.512Z,6.70
2023-05-12T12:01:10.510Z,6.78
2023-05-12T12:02:10.519Z,6.66
2023-05-12T12:03:10.748Z,6.83
2023-05-12T12:04:10.582Z,6.83
2023-05-12T12:05:10.529Z,6.47
2023-05-12T12:06:10.477Z,6.85
2023-05-12T12:07:10.485Z,6.70
2023-05-12T12:08:10.473Z,6.89
2023-05-12T12:09:10.479Z,6.54
2023-05-12T12:10:10.474Z,6.66
2023-05-12T12:11:10.472Z,6.50
2023-05-12T12:12:10.431Z,6.52
2023-05-12T12:13:10.425Z,6.58
2023-05-12T12:14:10.444Z,6.38
2023-05-12T12:15:10.431Z,6.22
2023-05-12T12:16:12.309Z,6.29
2023-05-12T12:17:10.398Z,6.27
2023-05-12T12:18:10.419Z,6.23
2023-05-12T12:19:10.483Z,6.23
2023-05-12T12:20:10.390Z,5.88
2023-05-12T12:21:10.369Z,6.29
2023-05-12T12:22:10.369Z,6.08
2023-05-12T12:23:10.355Z,5.86
2023-05-12T12:24:10.348Z,6.03
2023-05-12T12:25:10.349Z,5.94
2023-05-12T12:26:10.336Z,6.01
2023-05-12T12:27:10.409Z,5.92
2023-05-12T12:28:10.318Z,5.86
2023-05-12T12:29:10.313Z,5.73
2023-05-12T12:30:10.358Z,5.61
2023-05-12T12:31:10.312Z,5.63
2023-05-12T12:32:10.293Z,5.91
2023-05-12T12:33:10.392Z,5.53
2023-05-12T12:34:10.277Z,5.59
2023-05-12T12:35:10.275Z,5.54
2023-05-12T12:36:10.256Z,5.39
2023-05-12T12:37:10.252Z,5.35
2023-05-12T12:38:10.250Z,5.36
2023-05-12T12:39:10.239Z,5.20
2023-05-12T12:40:10.234Z,5.35
2023-05-12T12:41:10.225Z,5.29
2023-05-12T12:42:10.218Z,5.19
2023-05-12T12:43:10.241Z,5.19
2023-05-12T12:44:10.207Z,5.20
2023-05-12T12:45:10.198Z,5.46
2023-05-12T12:46:10.199Z,5.00
2023-05-12T12:47:10.224Z,5.09
2023-05-12T12:48:10.190Z,5.14
2023-05-12T12:49:10.174Z,5.34
2023-05-12T12:50:10.252Z,5.01
2023-05-12T12:51:10.146Z,4.96
2023-05-12T12:52:10.140Z,5.08
2023-05-12T12:53:10.149Z,4.96
2023-05-12T12:54:10.133Z,5.13
2023-05-12T12:55:10.158Z,4.94
2023-05-12T12:56:10.112Z,5.07
2023-05-12T12:57:10.215Z,4.75
2023-05-12T12:58:10.133Z,4.85
2023-05-12T12:59:10.210Z,5.03
2023-05-12T13:00:10.284Z,4.87
2023-05-12T13:01:10.351Z,4.92
2023-05-12T13:02:10.444Z,4.99
2023-05-12T13:03:10.481Z,4.74
2023-05-12T13:04:10.510Z,4.87
2023-05-12T13:05:10.573Z,4.89
2023-05-12T13:06:10.616Z,4.80
2023-05-12T13:07:10.681Z,4.49
2023-05-12T13:08:10.741Z,4.48
2023-05-12T13:09:10.811Z,4.51
2023-05-12T13:10:10.860Z,4.40
2023-05-12T13:11:10.927Z,4.43
2023-05-12T13:12:10.993Z,4.42
2023-05-12T13:13:11.026Z,4.40
2023-05-12T13:14:11.102Z,4.18
2023-05-12T13:15:11.166Z,4.35
2023-05-12T13:16:11.309Z,4.27
2023-05-12T13:17:11.305Z,3.96
2023-05-12T13:18:11.390Z,4.01
2023-05-12T13:19:11.510Z,4.17
2023-05-12T13:20:11.481Z,4.10
2023-05-12T13:21:11.549Z,3.98